Time;durP1;ratioP1;P1;durP2;ratioP2;P2;SDS_P1;SDS_P2;PMS_P1;PMS_P2;Temp;Humidity;BMP_temperature;BMP_pressure;BME280_temperature;BME280_humidity;BME280_pressure;Samples;Min_cycle;Max_cycle;Signal;HPM_P1;HPM_P2
2023/07/02 00:01:47;;;;;;;2.03;1.70;;;24.30;91.60;;;;;;5028538;28;20493;-77
2023/07/02 00:04:16;;;;;;;1.50;1.40;;;24.30;91.60;;;;;;5025751;28;20974;-76
2023/07/02 00:06:43;;;;;;;2.70;1.60;;;24.30;91.60;;;;;;5030063;28;20486;-76
2023/07/02 00:09:10;;;;;;;1.47;1.30;;;24.30;91.50;;;;;;5027343;28;20467;-76
2023/07/02 00:11:38;;;;;;;1.77;1.33;;;24.30;91.60;;;;;;5026882;28;20977;-77
2023/07/02 00:14:06;;;;;;;2.27;1.30;;;24.30;91.80;;;;;;5023252;28;20831;-76
2023/07/02 00:16:33;;;;;;;1.77;1.43;;;24.20;91.50;;;;;;5025700;28;20459;-75
2023/07/02 00:19:00;;;;;;;2.37;1.60;;;24.20;91.50;;;;;;5027852;28;20471;-77
2023/07/02 00:21:28;;;;;;;1.30;1.20;;;24.20;91.50;;;;;;5021636;28;20995;-76
2023/07/02 00:23:56;;;;;;;1.47;1.37;;;24.20;91.50;;;;;;5026615;28;20520;-76
2023/07/02 00:26:24;;;;;;;1.63;1.53;;;24.20;91.50;;;;;;5028018;28;20479;-76
2023/07/02 00:28:50;;;;;;;1.47;1.37;;;24.20;91.50;;;;;;5026668;28;20454;-76
2023/07/02 00:31:18;;;;;;;1.40;1.30;;;24.20;91.50;;;;;;5028443;28;20498;-76
2023/07/02 00:33:45;;;;;;;1.23;1.13;;;24.20;91.50;;;;;;5027916;28;20465;-76
2023/07/02 00:36:14;;;;;;;2.53;1.60;;;24.20;91.50;;;;;;5030398;28;20469;-76
2023/07/02 00:38:42;;;;;;;1.53;1.43;;;24.20;91.50;;;;;;5029143;28;20474;-75
2023/07/02 00:41:08;;;;;;;1.80;1.70;;;24.20;91.50;;;;;;5029087;28;20966;-76
2023/07/02 00:43:35;;;;;;;1.23;1.13;;;24.20;91.50;;;;;;5029090;28;20469;-76
2023/07/02 00:46:03;;;;;;;1.10;1.00;;;24.20;91.50;;;;;;5026508;28;20506;-76
2023/07/02 00:48:32;;;;;;;1.60;1.50;;;24.20;91.50;;;;;;5029972;28;21651;-76
2023/07/02 00:50:59;;;;;;;1.50;1.40;;;24.10;91.40;;;;;;5032302;28;20466;-76
2023/07/02 00:53:26;;;;;;;1.60;1.50;;;24.10;91.40;;;;;;5035199;28;20458;-75
2023/07/02 00:55:53;;;;;;;1.10;1.00;;;24.10;91.50;;;;;;5033689;28;20458;-76
2023/07/02 00:58:20;;;;;;;1.27;1.17;;;24.10;91.40;;;;;;5031908;28;20492;-76
2023/07/02 01:00:47;;;;;;;1.30;1.20;;;24.10;91.40;;;;;;5024167;28;20877;-75
2023/07/02 01:03:14;;;;;;;1.50;1.40;;;24.00;91.40;;;;;;5030749;28;20466;-76
2023/07/02 01:05:42;;;;;;;1.50;1.37;;;24.10;91.40;;;;;;5031354;28;20485;-77
2023/07/02 01:08:10;;;;;;;1.40;1.30;;;24.00;91.40;;;;;;5035963;28;21155;-76
2023/07/02 01:10:37;;;;;;;1.23;1.13;;;24.00;91.40;;;;;;5034628;28;20459;-76
2023/07/02 01:13:10;;;;;;;1.20;1.10;;;24.10;91.40;;;;;;5036919;28;20481;-76
2023/07/02 01:15:38;;;;;;;1.50;1.40;;;24.00;91.40;;;;;;5028224;28;20452;-76
2023/07/02 01:18:06;;;;;;;1.30;1.20;;;24.00;91.30;;;;;;5034914;28;20466;-75
2023/07/02 01:20:36;;;;;;;1.43;1.33;;;24.00;91.40;;;;;;5030222;28;20833;-76
2023/07/02 01:23:04;;;;;;;1.33;1.20;;;24.00;91.40;;;;;;5033631;28;20467;-75
2023/07/02 01:25:31;;;;;;;1.47;1.37;;;24.00;91.40;;;;;;5031084;28;20489;-75
2023/07/02 01:27:58;;;;;;;2.10;1.30;;;24.00;91.40;;;;;;5029195;28;20810;-75
2023/07/02 01:30:25;;;;;;;1.50;1.40;;;24.00;91.40;;;;;;5023425;28;21224;-76
2023/07/02 01:32:53;;;;;;;1.40;1.30;;;24.00;91.40;;;;;;5025577;28;20459;-76
2023/07/02 01:35:19;;;;;;;1.23;1.13;;;24.00;91.40;;;;;;5029081;28;20462;-75
2023/07/02 01:37:48;;;;;;;1.37;1.20;;;24.00;91.40;;;;;;5030473;28;20442;-76
2023/07/02 01:40:14;;;;;;;1.60;1.50;;;24.00;91.40;;;;;;5033474;28;21036;-75
2023/07/02 01:42:41;;;;;;;1.53;1.43;;;24.00;91.40;;;;;;5029102;28;20807;-75
2023/07/02 01:45:09;;;;;;;1.77;1.20;;;23.90;91.30;;;;;;5030401;28;20473;-75
2023/07/02 01:47:36;;;;;;;1.20;1.10;;;24.00;91.40;;;;;;5034091;28;20465;-75
2023/07/02 01:50:06;;;;;;;1.67;1.30;;;23.90;91.30;;;;;;5031632;28;20458;-75
2023/07/02 01:52:33;;;;;;;1.50;1.40;;;24.00;91.40;;;;;;5029431;28;20825;-76
2023/07/02 01:55:02;;;;;;;1.50;1.40;;;23.90;91.40;;;;;;5028701;28;20475;-75
2023/07/02 01:57:30;;;;;;;1.37;1.27;;;23.90;91.40;;;;;;5027996;28;21027;-75
2023/07/02 01:59:57;;;;;;;1.60;1.50;;;23.90;91.40;;;;;;5025891;28;20552;-76
2023/07/02 02:02:24;;;;;;;1.60;1.33;;;23.90;91.30;;;;;;5029152;28;20469;-76
2023/07/02 02:04:50;;;;;;;1.50;1.40;;;23.90;91.30;;;;;;5026598;28;20518;-76
2023/07/02 02:07:17;;;;;;;1.30;1.20;;;23.90;91.30;;;;;;5027835;28;21006;-76
2023/07/02 02:09:44;;;;;;;1.87;1.30;;;23.90;91.40;;;;;;5029850;28;21052;-76
2023/07/02 02:12:14;;;;;;;1.30;1.20;;;23.90;91.40;;;;;;5029654;28;20461;-76
2023/07/02 02:14:40;;;;;;;1.60;1.37;;;23.90;91.30;;;;;;5031004;28;21122;-75
2023/07/02 02:17:07;;;;;;;1.77;1.67;;;23.90;91.40;;;;;;5032930;28;20470;-76
2023/07/02 02:19:34;;;;;;;1.40;1.30;;;23.90;91.40;;;;;;5029371;28;20983;-75
2023/07/02 02:22:01;;;;;;;1.50;1.30;;;23.80;91.30;;;;;;5031347;28;20913;-75
2023/07/02 02:24:27;;;;;;;1.60;1.30;;;23.80;91.30;;;;;;5031937;28;20458;-75
2023/07/02 02:26:54;;;;;;;1.73;1.63;;;23.90;91.40;;;;;;5032564;28;20508;-76
2023/07/02 02:29:22;;;;;;;1.40;1.30;;;23.90;91.40;;;;;;5028133;28;20925;-75
2023/07/02 02:31:49;;;;;;;1.73;1.63;;;23.80;91.30;;;;;;5027983;28;20459;-75
2023/07/02 02:34:19;;;;;;;1.20;1.10;;;23.80;91.30;;;;;;5029749;28;20833;-75
2023/07/02 02:36:46;;;;;;;1.50;1.40;;;23.80;91.30;;;;;;5031146;28;20643;-80
2023/07/02 02:39:13;;;;;;;1.30;1.20;;;23.80;91.30;;;;;;5030779;28;20478;-80
2023/07/02 02:41:40;;;;;;;1.40;1.30;;;23.80;91.40;;;;;;5034370;28;20552;-80
2023/07/02 02:44:07;;;;;;;1.30;1.20;;;23.80;91.30;;;;;;5030645;28;20470;-81
2023/07/02 02:46:35;;;;;;;1.30;1.20;;;23.80;91.30;;;;;;5032470;28;20486;-81
2023/07/02 02:49:02;;;;;;;1.43;1.20;;;23.80;91.30;;;;;;5033150;28;20455;-79
2023/07/02 02:51:29;;;;;;;1.43;1.30;;;23.80;91.30;;;;;;5031266;28;20457;-79
2023/07/02 02:53:55;;;;;;;1.53;1.43;;;23.80;91.40;;;;;;5030122;28;21003;-80
2023/07/02 02:56:22;;;;;;;1.23;1.13;;;23.80;91.30;;;;;;5033181;28;20455;-79
2023/07/02 02:58:49;;;;;;;1.27;1.17;;;23.80;91.40;;;;;;5033507;28;20672;-79
2023/07/02 03:01:15;;;;;;;1.60;1.50;;;23.80;91.40;;;;;;5033215;28;20462;-80
2023/07/02 03:03:45;;;;;;;1.77;1.50;;;23.80;91.30;;;;;;5029602;28;20450;-79
2023/07/02 03:06:14;;;;;;;1.40;1.10;;;23.80;91.40;;;;;;5030407;28;20477;-80
2023/07/02 03:08:41;;;;;;;1.40;1.00;;;23.80;91.40;;;;;;5030870;28;20462;-80
2023/07/02 03:11:08;;;;;;;1.70;1.60;;;23.80;91.40;;;;;;5029813;28;20462;-80
2023/07/02 03:13:35;;;;;;;1.50;1.40;;;23.70;91.30;;;;;;5033034;28;20459;-79
2023/07/02 03:16:02;;;;;;;1.73;1.37;;;23.80;91.40;;;;;;5033899;28;20458;-79
2023/07/02 03:18:28;;;;;;;1.30;1.20;;;23.70;91.30;;;;;;5036750;28;20492;-79
2023/07/02 03:20:56;;;;;;;1.53;1.43;;;23.80;91.40;;;;;;5033761;28;20469;-79
2023/07/02 03:23:23;;;;;;;1.50;1.40;;;23.70;91.70;;;;;;5036737;28;20462;-78
2023/07/02 03:25:50;;;;;;;1.27;1.10;;;23.70;91.40;;;;;;5036700;28;20825;-80
2023/07/02 03:28:17;;;;;;;1.60;1.50;;;23.70;91.40;;;;;;5038575;28;20968;-79
2023/07/02 03:30:44;;;;;;;1.30;1.20;;;23.70;91.40;;;;;;5033374;28;20462;-80
2023/07/02 03:33:11;;;;;;;1.50;1.40;;;23.70;91.40;;;;;;5039328;28;20450;-81
2023/07/02 03:35:37;;;;;;;1.37;1.20;;;23.70;91.30;;;;;;5035799;28;20450;-80
2023/07/02 03:38:06;;;;;;;1.67;1.57;;;23.70;91.40;;;;;;5035159;28;20494;-80
2023/07/02 03:40:33;;;;;;;1.37;1.27;;;23.70;91.40;;;;;;5033467;28;20535;-80
2023/07/02 03:43:00;;;;;;;1.10;0.93;;;23.70;91.40;;;;;;5031399;28;20536;-80
2023/07/02 03:45:26;;;;;;;1.17;1.00;;;23.70;91.40;;;;;;5032313;28;20602;-81
2023/07/02 03:47:53;;;;;;;1.17;1.07;;;23.70;91.40;;;;;;5033220;28;21012;-80
2023/07/02 03:50:20;;;;;;;1.30;1.20;;;23.70;91.30;;;;;;5030456;28;20473;-80
2023/07/02 03:52:47;;;;;;;1.20;1.10;;;23.70;91.40;;;;;;5033830;28;20450;-80
2023/07/02 03:55:15;;;;;;;1.70;1.23;;;23.60;91.30;;;;;;5032236;28;20474;-80
2023/07/02 03:57:42;;;;;;;1.43;1.33;;;23.60;91.30;;;;;;5031816;28;20470;-80
2023/07/02 04:00:11;;;;;;;1.30;1.20;;;23.60;91.30;;;;;;5030382;28;20465;-80
2023/07/02 04:02:38;;;;;;;1.40;1.10;;;23.70;91.40;;;;;;5031241;28;20547;-80
2023/07/02 04:05:05;;;;;;;1.30;1.20;;;23.70;91.40;;;;;;5032445;28;21193;-80
2023/07/02 04:07:32;;;;;;;2.20;1.47;;;23.70;91.40;;;;;;5031954;28;20473;-80
2023/07/02 04:09:59;;;;;;;1.50;1.40;;;23.70;91.40;;;;;;5032116;28;20549;-80
2023/07/02 04:12:27;;;;;;;1.23;1.13;;;23.70;91.30;;;;;;5031286;28;20830;-80
2023/07/02 04:14:54;;;;;;;1.70;1.60;;;23.70;91.30;;;;;;5032084;28;20545;-79
2023/07/02 04:17:21;;;;;;;1.20;1.10;;;23.70;91.30;;;;;;5031162;28;21086;-80
2023/07/02 04:19:48;;;;;;;1.40;1.30;;;23.60;91.30;;;;;;5031245;28;20471;-80
2023/07/02 04:22:15;;;;;;;1.30;1.10;;;23.60;91.30;;;;;;5031791;28;20457;-80
2023/07/02 04:24:42;;;;;;;1.30;1.10;;;23.60;91.20;;;;;;5030597;28;20987;-80
2023/07/02 04:27:08;;;;;;;1.60;1.40;;;23.60;91.30;;;;;;5037365;28;20489;-80
2023/07/02 04:29:36;;;;;;;2.53;1.70;;;23.60;91.30;;;;;;5035722;28;20462;-81
2023/07/02 04:32:03;;;;;;;1.37;1.27;;;23.60;91.30;;;;;;5036068;28;21152;-80
2023/07/02 04:34:30;;;;;;;1.50;1.40;;;23.60;91.40;;;;;;5022731;28;20989;-80
2023/07/02 04:36:57;;;;;;;1.20;1.10;;;23.60;91.30;;;;;;5030399;28;20458;-80
2023/07/02 04:39:23;;;;;;;1.50;1.20;;;23.60;91.30;;;;;;5031466;28;20465;-80
2023/07/02 04:41:53;;;;;;;1.30;1.20;;;23.60;91.30;;;;;;5032098;28;20456;-80
2023/07/02 04:44:22;;;;;;;1.40;1.30;;;23.60;91.30;;;;;;5026859;28;20886;-80
2023/07/02 04:46:50;;;;;;;1.10;1.00;;;23.60;91.40;;;;;;5028849;28;20489;-80
2023/07/02 04:52:11;;;;;;;1.40;1.30;;;23.60;91.40;;;;;;5026514;28;23258;-80
2023/07/02 04:54:38;;;;;;;1.30;1.20;;;23.50;91.30;;;;;;5029800;28;20454;-80
2023/07/02 04:57:05;;;;;;;1.47;1.30;;;23.60;91.40;;;;;;5024176;28;20875;-80
2023/07/02 04:59:31;;;;;;;1.20;1.03;;;23.50;91.30;;;;;;5029704;28;20465;-80
2023/07/02 05:01:59;;;;;;;1.20;1.10;;;23.50;91.30;;;;;;5026427;28;20970;-80
2023/07/02 05:04:26;;;;;;;1.40;1.30;;;23.50;91.40;;;;;;5029415;28;20459;-80
2023/07/02 05:06:54;;;;;;;1.40;1.30;;;23.50;91.40;;;;;;5028610;28;20484;-78
2023/07/02 05:09:21;;;;;;;1.30;1.20;;;23.50;91.30;;;;;;5029249;28;20464;-80
2023/07/02 05:11:47;;;;;;;1.87;1.10;;;23.50;91.30;;;;;;5026006;28;20469;-80
2023/07/02 05:14:14;;;;;;;1.87;1.60;;;23.50;91.40;;;;;;5027829;28;20469;-80
2023/07/02 05:16:41;;;;;;;1.40;1.30;;;23.50;91.40;;;;;;5022826;28;20459;-80
2023/07/02 05:19:09;;;;;;;1.43;1.30;;;23.50;91.30;;;;;;5030269;28;20454;-80
2023/07/02 05:21:36;;;;;;;1.47;1.37;;;23.50;91.40;;;;;;5026168;28;20490;-80
2023/07/02 05:24:03;;;;;;;1.10;1.00;;;23.50;91.40;;;;;;5028365;28;21200;-80
2023/07/02 05:26:29;;;;;;;1.57;1.40;;;23.50;91.40;;;;;;5033096;28;20477;-80
2023/07/02 05:28:56;;;;;;;1.50;1.40;;;23.50;91.40;;;;;;5031570;28;20822;-80
2023/07/02 05:31:23;;;;;;;1.37;1.27;;;23.50;91.40;;;;;;5029518;28;20450;-80
2023/07/02 05:33:50;;;;;;;1.23;1.10;;;23.50;91.40;;;;;;5035659;28;20841;-80
2023/07/02 05:36:18;;;;;;;2.07;1.20;;;23.50;91.40;;;;;;5030167;28;20462;-80
2023/07/02 05:38:44;;;;;;;1.33;1.23;;;23.50;91.40;;;;;;5032957;28;21047;-80
2023/07/02 05:41:11;;;;;;;2.07;1.60;;;23.50;91.40;;;;;;5032922;28;20480;-80
2023/07/02 05:43:38;;;;;;;1.27;1.17;;;23.50;91.40;;;;;;5032331;28;20486;-80
2023/07/02 05:46:05;;;;;;;2.63;1.43;;;23.50;91.40;;;;;;5025793;28;21151;-79
2023/07/02 05:48:31;;;;;;;1.47;1.37;;;23.50;91.40;;;;;;5029788;28;20485;-80
2023/07/02 05:50:58;;;;;;;1.40;1.23;;;23.50;91.40;;;;;;5027598;28;20474;-80
2023/07/02 05:53:26;;;;;;;1.80;1.40;;;23.50;91.40;;;;;;5027928;28;20468;-82
2023/07/02 05:55:53;;;;;;;1.23;1.13;;;23.50;91.40;;;;;;5026910;28;20458;-83
2023/07/02 05:58:20;;;;;;;1.57;1.47;;;23.50;91.30;;;;;;5030602;28;20467;-82
2023/07/02 06:00:49;;;;;;;1.33;1.23;;;23.50;91.40;;;;;;5017356;28;20466;-82
2023/07/02 06:03:19;;;;;;;1.33;1.23;;;23.50;91.30;;;;;;5024612;28;21080;-82
2023/07/02 06:05:48;;;;;;;1.57;1.47;;;23.50;91.40;;;;;;5026464;28;21009;-82
2023/07/02 06:08:15;;;;;;;1.23;1.10;;;23.50;91.40;;;;;;5026683;28;20518;-82
2023/07/02 06:10:43;;;;;;;1.20;1.10;;;23.50;91.40;;;;;;5028731;28;21234;-82
2023/07/02 06:13:10;;;;;;;1.40;1.30;;;23.40;91.30;;;;;;5030675;28;20532;-82
2023/07/02 06:15:37;;;;;;;1.63;1.20;;;23.40;91.30;;;;;;5026140;28;20457;-82
2023/07/02 06:18:04;;;;;;;1.63;1.53;;;23.40;91.30;;;;;;5029111;28;20462;-80
2023/07/02 06:20:31;;;;;;;1.50;1.40;;;23.50;91.50;;;;;;5024239;28;20462;-82
2023/07/02 06:22:58;;;;;;;1.43;1.30;;;23.40;91.30;;;;;;5030143;28;20454;-82
2023/07/02 06:25:24;;;;;;;1.43;1.10;;;23.40;91.30;;;;;;5029656;28;20849;-81
2023/07/02 06:27:54;;;;;;;1.30;1.20;;;23.40;91.30;;;;;;5029513;28;20482;-82
2023/07/02 06:30:21;;;;;;;1.40;1.30;;;23.50;91.40;;;;;;5027156;28;20490;-82
2023/07/02 06:32:48;;;;;;;1.20;1.00;;;23.40;91.30;;;;;;5028095;28;20467;-82
2023/07/02 06:35:15;;;;;;;1.83;1.20;;;23.40;91.30;;;;;;5029078;28;20466;-80
2023/07/02 06:37:42;;;;;;;1.37;1.27;;;23.40;91.40;;;;;;5028691;28;20482;-79
2023/07/02 06:40:09;;;;;;;1.63;1.40;;;23.40;91.30;;;;;;5029904;28;21443;-77
2023/07/02 06:42:36;;;;;;;1.70;1.50;;;23.40;91.30;;;;;;5030008;28;20962;-80
2023/07/02 06:45:05;;;;;;;10.20;1.63;;;23.40;91.30;;;;;;5024534;28;21237;-81
2023/07/02 06:47:32;;;;;;;6.43;3.53;;;23.40;91.30;;;;;;5029840;28;21040;-81
2023/07/02 06:49:59;;;;;;;10.63;6.80;;;23.40;91.30;;;;;;5030432;28;20478;-81
2023/07/02 06:52:26;;;;;;;11.57;7.83;;;23.40;90.80;;;;;;5028505;28;20451;-81
2023/07/02 06:54:52;;;;;;;17.40;8.07;;;23.40;90.10;;;;;;5030141;28;21154;-80
2023/07/02 06:57:19;;;;;;;12.83;7.40;;;23.30;89.40;;;;;;5027361;28;20500;-79
2023/07/02 06:59:46;;;;;;;12.60;7.50;;;23.30;90.00;;;;;;5032228;28;20457;-80
2023/07/02 07:02:14;;;;;;;10.33;6.40;;;23.30;90.10;;;;;;5016219;28;21111;-79
2023/07/02 07:04:41;;;;;;;11.63;7.87;;;23.30;90.00;;;;;;5027841;28;20457;-79
2023/07/02 07:07:07;;;;;;;17.50;7.53;;;23.30;89.40;;;;;;5036325;28;20459;-79
2023/07/02 07:09:34;;;;;;;11.50;8.77;;;23.30;88.70;;;;;;5032504;28;20477;-79
2023/07/02 07:12:01;;;;;;;13.50;7.87;;;23.30;84.70;;;;;;5035451;28;20464;-79
2023/07/02 07:14:28;;;;;;;14.80;7.77;;;23.20;82.50;;;;;;5033467;28;21020;-80
2023/07/02 07:16:55;;;;;;;13.37;8.00;;;22.80;82.90;;;;;;5038420;28;20849;-79
2023/07/02 07:19:23;;;;;;;15.17;8.23;;;23.20;83.60;;;;;;5034375;28;21254;-80
2023/07/02 07:21:50;;;;;;;18.00;8.40;;;23.10;87.30;;;;;;5033201;28;21084;-79
2023/07/02 07:24:17;;;;;;;18.60;9.87;;;23.10;87.30;;;;;;5032899;28;20470;-79
2023/07/02 07:26:44;;;;;;;12.77;9.00;;;23.00;85.60;;;;;;5034785;28;20465;-79
2023/07/02 07:29:11;;;;;;;21.23;7.70;;;23.00;86.10;;;;;;5028491;28;20509;-80
2023/07/02 07:31:38;;;;;;;13.10;9.07;;;23.00;86.10;;;;;;5031583;28;20459;-80
2023/07/02 07:34:05;;;;;;;13.03;8.00;;;23.10;87.50;;;;;;5032991;28;20462;-81
2023/07/02 07:36:33;;;;;;;17.37;8.00;;;23.00;88.50;;;;;;5027757;28;20462;-80
2023/07/02 07:39:00;;;;;;;14.93;7.07;;;23.00;77.50;;;;;;5027578;28;20860;-80
2023/07/02 07:41:27;;;;;;;11.13;7.20;;;23.00;78.40;;;;;;5030335;28;20475;-81
2023/07/02 07:43:53;;;;;;;11.00;8.07;;;23.00;77.60;;;;;;5033111;28;20454;-81
2023/07/02 07:46:20;;;;;;;13.77;6.90;;;23.00;77.90;;;;;;5035498;28;21420;-80
2023/07/02 07:48:47;;;;;;;16.03;8.17;;;23.00;77.60;;;;;;5034610;28;20500;-80
2023/07/02 07:51:14;;;;;;;11.17;7.43;;;23.00;77.80;;;;;;5034610;28;20484;-80
2023/07/02 07:53:42;;;;;;;13.97;8.70;;;23.00;77.40;;;;;;5032993;28;20992;-80
2023/07/02 07:56:09;;;;;;;17.53;8.27;;;23.00;77.40;;;;;;5036262;28;20462;-79
2023/07/02 07:58:36;;;;;;;13.67;7.43;;;23.00;77.20;;;;;;5029859;28;20849;-80
2023/07/02 08:01:03;;;;;;;13.70;8.33;;;23.00;77.30;;;;;;5031557;28;20467;-80
2023/07/02 08:03:29;;;;;;;11.40;7.90;;;23.00;77.70;;;;;;5035655;28;20449;-80
2023/07/02 08:05:56;;;;;;;12.77;7.13;;;23.00;77.80;;;;;;5029438;28;20466;-80
2023/07/02 08:08:23;;;;;;;10.90;6.73;;;23.00;77.50;;;;;;5032055;28;20477;-80
2023/07/02 08:10:51;;;;;;;12.17;7.83;;;23.00;77.50;;;;;;5033743;28;20460;-80
2023/07/02 08:13:18;;;;;;;16.27;7.80;;;23.00;77.30;;;;;;5033659;28;20548;-80
2023/07/02 08:15:48;;;;;;;11.40;7.53;;;23.00;77.40;;;;;;5030521;28;20453;-80
2023/07/02 08:18:15;;;;;;;13.93;7.90;;;23.00;76.70;;;;;;5029802;28;20463;-80
2023/07/02 08:20:41;;;;;;;13.50;6.93;;;23.00;76.20;;;;;;5024412;28;20454;-80
2023/07/02 08:23:08;;;;;;;9.47;6.90;;;23.00;76.50;;;;;;5029162;28;20952;-78
2023/07/02 08:25:35;;;;;;;12.07;7.67;;;23.00;75.80;;;;;;5030156;28;20823;-77
2023/07/02 08:28:03;;;;;;;12.70;8.13;;;23.00;75.70;;;;;;5029895;28;20478;-80
2023/07/02 08:30:30;;;;;;;10.27;7.30;;;23.00;76.80;;;;;;5028584;28;20462;-83
2023/07/02 08:32:57;;;;;;;10.30;6.60;;;23.00;76.20;;;;;;5030798;28;20507;-85
2023/07/02 08:35:24;;;;;;;10.77;7.80;;;23.00;75.90;;;;;;5030899;28;20458;-83
2023/07/02 08:37:50;;;;;;;13.53;7.93;;;23.00;76.30;;;;;;5031731;28;20469;-83
2023/07/02 08:40:18;;;;;;;11.03;6.47;;;23.00;76.70;;;;;;5031903;28;20457;-85
2023/07/02 08:42:47;;;;;;;10.30;7.33;;;23.00;77.90;;;;;;5032868;28;21261;-83
2023/07/02 08:45:16;;;;;;;12.17;9.03;;;23.10;78.10;;;;;;5028643;28;20454;-82
2023/07/02 08:47:43;;;;;;;19.27;8.33;;;23.10;77.80;;;;;;5031838;28;20512;-83
2023/07/02 08:50:14;;;;;;;11.03;7.87;;;23.00;77.80;;;;;;5029749;28;20464;-84
2023/07/02 08:52:42;;;;;;;16.03;7.57;;;23.10;78.30;;;;;;5030148;28;20466;-82
2023/07/02 08:55:10;;;;;;;9.67;7.53;;;23.10;76.70;;;;;;5027818;28;20463;-79
2023/07/02 08:57:36;;;;;;;10.67;7.00;;;23.10;75.40;;;;;;5028861;28;20487;-79
2023/07/02 09:00:08;;;;;;;8.93;6.67;;;23.10;75.90;;;;;;5027017;28;20465;-79
2023/07/02 09:02:37;;;;;;;13.23;9.13;;;23.10;75.60;;;;;;5029296;28;20478;-79
2023/07/02 09:05:04;;;;;;;13.80;7.90;;;23.10;75.40;;;;;;5027806;28;20465;-79
2023/07/02 09:07:31;;;;;;;13.03;8.70;;;23.20;75.40;;;;;;5027492;28;20471;-78
2023/07/02 09:09:58;;;;;;;12.73;8.80;;;23.20;75.10;;;;;;5028595;28;20467;-77
2023/07/02 09:12:26;;;;;;;14.37;7.93;;;23.20;74.40;;;;;;5026417;28;20458;-78
2023/07/02 09:14:58;;;;;;;10.40;7.47;;;23.20;74.40;;;;;;5023802;28;20495;-78
2023/07/02 09:17:31;;;;;;;15.37;7.73;;;23.20;73.90;;;;;;5024375;28;20969;-79
2023/07/02 09:20:01;;;;;;;10.10;6.80;;;23.20;73.80;;;;;;5026036;28;20847;-79
2023/07/02 09:22:29;;;;;;;12.17;7.40;;;23.20;73.90;;;;;;5027550;28;20874;-79
2023/07/02 09:24:57;;;;;;;16.73;8.50;;;23.20;73.80;;;;;;5027075;28;20462;-79
2023/07/02 09:27:35;;;;;;;14.33;8.70;;;23.30;74.00;;;;;;5027753;28;20513;-79
2023/07/02 09:30:08;;;;;;;14.73;7.17;;;23.30;74.30;;;;;;5030164;28;21412;-79
2023/07/02 09:32:34;;;;;;;18.90;7.63;;;23.30;73.90;;;;;;5026959;28;20461;-78
2023/07/02 09:35:04;;;;;;;16.27;8.33;;;23.30;74.00;;;;;;5026589;28;21026;-79
2023/07/02 09:37:31;;;;;;;17.90;8.07;;;23.30;74.00;;;;;;5024485;28;20486;-79
2023/07/02 09:39:58;;;;;;;16.57;7.83;;;23.30;73.80;;;;;;5034644;28;20465;-79
2023/07/02 09:42:26;;;;;;;13.60;8.47;;;23.30;73.70;;;;;;5028297;28;20453;-79
2023/07/02 09:44:56;;;;;;;14.80;8.37;;;23.30;73.80;;;;;;5028865;28;20624;-78
2023/07/02 09:47:24;;;;;;;11.97;8.17;;;23.30;73.60;;;;;;5031932;28;20968;-79
2023/07/02 09:49:55;;;;;;;13.83;7.83;;;23.30;73.70;;;;;;5029222;28;20473;-79
2023/07/02 09:52:23;;;;;;;15.70;8.00;;;23.30;73.70;;;;;;5029328;28;20474;-79
2023/07/02 09:54:50;;;;;;;16.73;7.90;;;23.30;73.70;;;;;;5029006;28;20916;-79
2023/07/02 09:57:18;;;;;;;13.63;7.50;;;23.40;73.70;;;;;;5030499;28;20469;-78
2023/07/02 09:59:45;;;;;;;13.93;7.50;;;23.30;73.40;;;;;;5027175;28;20958;-78
2023/07/02 10:02:13;;;;;;;11.37;7.77;;;23.30;73.20;;;;;;5031756;28;20446;-79
2023/07/02 10:04:47;;;;;;;10.13;6.90;;;23.40;73.10;;;;;;5033084;28;21077;-79
2023/07/02 10:07:27;;;;;;;12.37;7.40;;;23.30;72.50;;;;;;5026600;28;20453;-79
2023/07/02 10:09:55;;;;;;;19.10;7.33;;;23.30;72.00;;;;;;5027368;28;20479;-80
2023/07/02 10:12:23;;;;;;;10.20;7.40;;;23.30;71.60;;;;;;5026089;28;20451;-79
2023/07/02 10:14:51;;;;;;;12.50;6.83;;;23.30;71.20;;;;;;5023878;28;20469;-79
2023/07/02 10:17:27;;;;;;;18.60;7.50;;;23.30;70.90;;;;;;5023718;28;20462;-80
2023/07/02 10:19:54;;;;;;;12.03;6.80;;;23.30;71.00;;;;;;5022416;28;20810;-79
2023/07/02 10:22:21;;;;;;;13.30;7.77;;;23.30;71.40;;;;;;5023187;28;20451;-79
2023/07/02 10:24:59;;;;;;;10.67;7.07;;;23.30;71.80;;;;;;5021624;28;20757;-78
2023/07/02 10:27:37;;;;;;;12.60;7.70;;;23.30;72.10;;;;;;5024984;28;20467;-79
2023/07/02 10:30:05;;;;;;;10.57;7.03;;;23.40;73.00;;;;;;5026391;28;20477;-79
2023/07/02 10:32:33;;;;;;;11.50;7.10;;;23.40;73.50;;;;;;5023853;28;20463;-79
2023/07/02 10:35:02;;;;;;;15.43;7.10;;;23.40;73.60;;;;;;5027196;28;20468;-79
2023/07/02 10:37:36;;;;;;;16.63;7.20;;;23.40;73.30;;;;;;5029161;28;20482;-79
2023/07/02 10:40:06;;;;;;;14.53;7.73;;;23.30;72.90;;;;;;5027751;28;20472;-79
2023/07/02 10:42:34;;;;;;;11.43;6.90;;;23.30;72.90;;;;;;5023609;28;20545;-79
2023/07/02 10:45:00;;;;;;;11.40;6.90;;;23.30;73.10;;;;;;5026498;28;20461;-79
2023/07/02 10:47:29;;;;;;;15.47;7.30;;;23.30;72.80;;;;;;5024612;28;20461;-79
2023/07/02 10:49:56;;;;;;;11.27;7.67;;;23.30;72.30;;;;;;5025549;28;21167;-79
2023/07/02 10:52:23;;;;;;;23.77;7.93;;;23.30;72.10;;;;;;5024671;28;20465;-79
2023/07/02 10:54:50;;;;;;;11.30;6.60;;;23.30;71.70;;;;;;5024076;28;20454;-79
2023/07/02 10:57:21;;;;;;;17.10;7.83;;;23.30;71.50;;;;;;5025526;28;21090;-78
2023/07/02 10:59:47;;;;;;;12.83;6.83;;;23.30;71.20;;;;;;5026523;28;20462;-79
2023/07/02 11:02:14;;;;;;;11.30;6.53;;;23.30;70.80;;;;;;5023937;28;20548;-79
2023/07/02 11:04:41;;;;;;;12.40;6.90;;;23.30;70.40;;;;;;5025280;28;20481;-79
2023/07/02 11:07:08;;;;;;;14.77;6.13;;;23.30;70.30;;;;;;5028374;28;20957;-79
2023/07/02 11:09:35;;;;;;;8.00;6.50;;;23.30;70.10;;;;;;5026485;28;20481;-79
2023/07/02 11:12:02;;;;;;;16.73;6.73;;;23.20;70.00;;;;;;5025217;28;20465;-77
2023/07/02 11:14:34;;;;;;;13.20;6.40;;;23.20;66.50;;;;;;5020524;28;20474;-79
2023/07/02 11:17:05;;;;;;;11.67;7.03;;;23.20;67.10;;;;;;5024116;28;20841;-79
2023/07/02 11:19:32;;;;;;;13.63;6.17;;;23.20;67.40;;;;;;5026387;28;20451;-79
2023/07/02 11:21:59;;;;;;;11.10;7.97;;;23.20;68.30;;;;;;5026002;28;20911;-79
2023/07/02 11:24:31;;;;;;;12.30;7.37;;;23.20;69.10;;;;;;5024511;28;21092;-79
2023/07/02 11:26:58;;;;;;;8.80;6.47;;;23.20;69.40;;;;;;5024966;28;20985;-78
2023/07/02 11:29:25;;;;;;;10.83;7.00;;;23.20;69.50;;;;;;5022125;28;20534;-79
2023/07/02 11:31:53;;;;;;;9.33;6.50;;;23.20;70.20;;;;;;5021766;28;20803;-79
2023/07/02 11:34:23;;;;;;;19.90;6.83;;;23.20;70.40;;;;;;5025981;28;21005;-79
2023/07/02 11:36:53;;;;;;;9.07;6.30;;;23.20;70.90;;;;;;5023045;28;21204;-79
2023/07/02 11:39:20;;;;;;;9.20;6.17;;;23.20;71.00;;;;;;5023627;28;20466;-79
2023/07/02 11:41:48;;;;;;;9.30;6.60;;;23.20;71.30;;;;;;5025598;28;20455;-79
2023/07/02 11:44:15;;;;;;;9.47;6.33;;;23.20;71.40;;;;;;5023253;28;20477;-79
2023/07/02 11:46:42;;;;;;;12.67;7.03;;;23.20;71.50;;;;;;5024375;28;20473;-78
2023/07/02 11:49:10;;;;;;;8.07;6.33;;;23.30;71.70;;;;;;5026908;28;20493;-78
2023/07/02 11:51:37;;;;;;;17.27;7.53;;;23.30;72.00;;;;;;5025415;28;20489;-80
2023/07/02 11:54:04;;;;;;;10.07;6.53;;;23.30;72.10;;;;;;5026941;28;20498;-79
2023/07/02 11:56:31;;;;;;;9.13;6.60;;;23.20;72.00;;;;;;5025683;28;20523;-80
2023/07/02 11:58:58;;;;;;;10.27;6.50;;;23.20;72.10;;;;;;5020583;28;20473;-80
2023/07/02 12:01:25;;;;;;;9.00;7.20;;;23.30;72.50;;;;;;5025179;28;20845;-79
2023/07/02 12:03:52;;;;;;;9.00;5.80;;;23.20;72.30;;;;;;5028889;28;20817;-80
2023/07/02 12:06:20;;;;;;;6.13;5.20;;;23.30;72.70;;;;;;5029210;28;21000;-79
2023/07/02 12:08:47;;;;;;;9.50;6.10;;;23.20;72.50;;;;;;5029285;28;20976;-80
2023/07/02 12:11:13;;;;;;;7.43;5.60;;;23.30;72.70;;;;;;5034281;28;20838;-79
2023/07/02 12:13:40;;;;;;;11.07;6.03;;;23.30;72.90;;;;;;5030875;28;20732;-79
2023/07/02 12:16:07;;;;;;;10.10;5.67;;;23.20;72.90;;;;;;5023288;28;20462;-79
2023/07/02 12:18:33;;;;;;;10.03;6.13;;;23.30;73.10;;;;;;5026043;28;20814;-79
2023/07/02 12:21:00;;;;;;;8.70;5.47;;;23.30;73.20;;;;;;5026603;28;20458;-79
2023/07/02 12:23:28;;;;;;;9.80;6.10;;;23.20;73.10;;;;;;5025859;28;20461;-79
2023/07/02 12:25:55;;;;;;;9.70;5.87;;;23.20;73.20;;;;;;5027219;28;20457;-79
2023/07/02 12:28:22;;;;;;;7.30;6.00;;;23.20;73.40;;;;;;5029958;28;20453;-79
2023/07/02 12:30:48;;;;;;;7.87;6.53;;;23.30;73.50;;;;;;5015339;28;20486;-79
2023/07/02 12:33:15;;;;;;;10.73;6.27;;;23.30;73.70;;;;;;5014799;28;20478;-79
2023/07/02 12:35:42;;;;;;;8.20;5.37;;;23.20;73.60;;;;;;5020806;28;20467;-78
2023/07/02 12:38:09;;;;;;;10.17;6.77;;;23.30;73.80;;;;;;5015853;28;20490;-79
2023/07/02 12:40:37;;;;;;;9.87;6.77;;;23.30;73.90;;;;;;5015673;28;21176;-79
2023/07/02 12:43:04;;;;;;;9.20;6.30;;;23.30;74.10;;;;;;5013115;28;20857;-79
2023/07/02 12:45:31;;;;;;;9.60;6.07;;;23.30;74.30;;;;;;5016463;28;21163;-79
2023/07/02 12:47:58;;;;;;;6.97;5.57;;;23.30;74.20;;;;;;5017500;28;20470;-79